createdAt,value
2022-08-30T00:13:41.568Z,19.686
2022-08-30T00:28:43.791Z,22.326
2022-08-30T00:43:45.969Z,22.056
2022-08-30T00:58:48.225Z,22.314
2022-08-30T01:13:50.591Z,23.963
2022-08-30T01:28:52.768Z,23.944
2022-08-30T01:43:55.187Z,24.236
2022-08-30T01:59:01.828Z,26.016
2022-08-30T02:14:05.384Z,28.554
2022-08-30T02:29:07.623Z,30.52
2022-08-30T02:44:09.859Z,31.966
2022-08-30T02:59:12.100Z,33.517
2022-08-30T03:14:14.305Z,34.065
2022-08-30T03:29:16.536Z,35.082
2022-08-30T03:44:18.763Z,36.142
2022-08-30T03:59:21.428Z,36.792
2022-08-30T04:14:23.589Z,43.088
2022-08-30T04:29:25.800Z,41.44
2022-08-30T04:44:28.128Z,37.436
2022-08-30T04:59:30.355Z,40.163
2022-08-30T05:14:32.627Z,40.542
2022-08-30T05:29:35.519Z,44.613
2022-08-30T05:44:37.851Z,44.184
2022-08-30T05:59:46.676Z,45.575
2022-08-30T06:14:48.965Z,43.879
2022-08-30T06:29:51.173Z,42.935
2022-08-30T06:44:53.430Z,44.76
2022-08-30T06:59:57.298Z,49.735
2022-08-30T07:14:59.631Z,45.826
2022-08-30T07:30:01.832Z,46.688
2022-08-30T07:45:04.205Z,45.528
2022-08-30T08:00:06.402Z,48.158
2022-08-30T08:15:09.076Z,48.85
2022-08-30T08:30:11.446Z,50.547
2022-08-30T08:45:16.841Z,51.262
2022-08-30T09:00:19.401Z,51.214
2022-08-30T09:15:21.615Z,50.672
2022-08-30T09:30:23.790Z,55.908
2022-08-30T09:45:27.857Z,59.277
2022-08-30T10:00:30.172Z,53.744
2022-08-30T10:15:32.355Z,54.902
2022-08-30T10:30:34.724Z,56.011
2022-08-30T10:45:36.945Z,56.622
2022-08-30T11:00:39.115Z,55.245
2022-08-30T11:15:44.060Z,57.762
2022-08-30T11:30:46.266Z,55.247
2022-08-30T11:45:48.583Z,55.319
2022-08-30T12:00:52.890Z,55.172
2022-08-30T12:15:55.356Z,53.034
2022-08-30T12:30:57.676Z,56.244
2022-08-30T12:46:00.840Z,57.146
2022-08-30T13:01:09.789Z,56.651
2022-08-30T13:16:12.085Z,54.969
2022-08-30T13:31:15.064Z,56.152
2022-08-30T13:46:18.558Z,53.808
2022-08-30T14:01:20.811Z,52.832
2022-08-30T14:16:27.012Z,50.384
2022-08-30T14:31:29.707Z,51.939
2022-08-30T14:46:32.105Z,50.235
2022-08-30T15:01:37.011Z,57.407
2022-08-30T15:16:39.607Z,48.493
2022-08-30T15:31:41.983Z,44.873
2022-08-30T15:46:44.299Z,47.636
2022-08-30T16:01:47.845Z,46.897
2022-08-30T16:16:50.235Z,44.657
2022-08-30T16:31:52.496Z,38.244
2022-08-30T16:46:54.825Z,40.148
2022-08-30T17:01:57.254Z,39.984
2022-08-30T17:17:00.576Z,39.497
2022-08-30T17:32:03.074Z,37.807
2022-08-30T17:47:05.260Z,37.603
2022-08-30T18:02:07.518Z,36.067
2022-08-30T18:17:13.709Z,35.302
2022-08-30T18:32:16.091Z,35.411
2022-08-30T18:47:18.280Z,34.677
2022-08-30T19:02:27.532Z,34.04
2022-08-30T19:17:30.225Z,33.394
2022-08-30T19:32:32.496Z,32.79
2022-08-30T19:47:34.769Z,31.038
2022-08-30T20:02:36.926Z,30.37
2022-08-30T20:18:02.531Z,28.82
2022-08-30T20:33:08.610Z,28.5
2022-08-30T20:48:11.383Z,27.101
2022-08-30T21:03:25.844Z,26.196
2022-08-30T21:18:29.535Z,24.829
2022-08-30T21:33:31.860Z,24.294
2022-08-30T21:48:34.072Z,24.488
2022-08-30T22:03:39.901Z,23.206
2022-08-30T22:18:42.080Z,23.168
2022-08-30T22:33:44.301Z,21.991
2022-08-30T22:48:46.499Z,22.744
2022-08-30T23:03:48.699Z,19.525
2022-08-30T23:18:50.934Z,18.91
2022-08-30T23:33:53.195Z,17.497
2022-08-30T23:48:55.408Z,20.173
